Time;durP1;ratioP1;P1;durP2;ratioP2;P2;SDS_P1;SDS_P2;PMS_P1;PMS_P2;Temp;Humidity;BMP_temperature;BMP_pressure;BME280_temperature;BME280_humidity;BME280_pressure;Samples;Min_cycle;Max_cycle;Signal;HPM_P1;HPM_P2
2023/02/20 00:00:53;;;;;;;;;;;;;;;1.76;77.64;101744.63;4194755;28;20047;-65
2023/02/20 00:02:55;;;;;;;;;;;;;;;1.73;77.64;101734.16;4195001;28;20019;-66
2023/02/20 00:04:58;;;;;;;;;;;;;;;1.70;77.78;101726.38;4194392;28;20011;-66
2023/02/20 00:07:00;;;;;;;;;;;;;;;1.67;77.86;101734.56;4195753;28;20015;-65
2023/02/20 00:09:04;;;;;;;;;;;;;;;1.65;78.00;101733.81;4195869;28;20028;-66
2023/02/20 00:11:06;;;;;;;;;;;;;;;1.64;78.16;101732.06;4193750;28;19990;-66
2023/02/20 00:13:08;;;;;;;;;;;;;;;1.66;78.58;101731.00;4196074;28;20012;-66
2023/02/20 00:15:10;;;;;;;;;;;;;;;1.69;78.34;101724.66;4195454;28;20362;-66
2023/02/20 00:17:11;;;;;;;;;;;;;;;1.69;78.41;101720.16;4195900;28;20059;-66
2023/02/20 00:19:13;;;;;;;;;;;;;;;1.69;78.28;101716.66;4194957;28;20023;-66
2023/02/20 00:21:15;;;;;;;;;;;;;;;1.67;78.59;101716.75;4195308;28;20374;-66
2023/02/20 00:23:17;;;;;;;;;;;;;;;1.65;78.38;101720.47;4195913;28;20441;-66
2023/02/20 00:25:22;;;;;;;;;;;;;;;1.61;78.74;101711.81;4195796;28;19967;-65
2023/02/20 00:27:24;;;;;;;;;;;;;;;1.62;78.87;101719.69;4195372;28;20018;-66
2023/02/20 00:29:26;;;;;;;;;;;;;;;1.61;78.81;101717.13;4184913;28;20043;-66
2023/02/20 00:31:28;;;;;;;;;;;;;;;1.65;79.01;101712.50;4193752;28;20011;-66
2023/02/20 00:33:31;;;;;;;;;;;;;;;1.65;79.20;101708.00;4194865;28;20035;-66
2023/02/20 00:35:33;;;;;;;;;;;;;;;1.64;79.14;101700.97;4185096;28;20039;-66
2023/02/20 00:37:35;;;;;;;;;;;;;;;1.62;79.09;101703.72;4194666;28;20015;-66
2023/02/20 00:39:36;;;;;;;;;;;;;;;1.58;79.18;101694.22;4185886;28;20035;-66
2023/02/20 00:41:42;;;;;;;;;;;;;;;1.57;79.43;101691.66;4203205;28;20019;-66
2023/02/20 00:43:44;;;;;;;;;;;;;;;1.58;79.70;101698.69;4203146;28;20011;-66
2023/02/20 00:45:46;;;;;;;;;;;;;;;1.58;79.72;101696.91;4209952;28;20465;-66
2023/02/20 00:47:48;;;;;;;;;;;;;;;1.58;79.87;101683.59;4194594;28;20461;-66
2023/02/20 00:49:50;;;;;;;;;;;;;;;1.58;79.58;101686.25;4195174;28;20019;-68
2023/02/20 00:51:52;;;;;;;;;;;;;;;1.57;79.71;101686.34;4193058;28;20022;-65
2023/02/20 00:53:54;;;;;;;;;;;;;;;1.59;79.80;101693.25;4195140;28;20024;-68
2023/02/20 00:55:56;;;;;;;;;;;;;;;1.59;79.95;101685.28;4193480;28;20020;-68
2023/02/20 00:57:59;;;;;;;;;;;;;;;1.58;79.95;101685.38;4193294;28;20410;-68
2023/02/20 01:00:03;;;;;;;;;;;;;;;1.58;80.04;101688.03;4201950;28;20390;-68
2023/02/20 01:02:05;;;;;;;;;;;;;;;1.58;80.47;101677.38;4194887;28;20016;-68
2023/02/20 01:04:06;;;;;;;;;;;;;;;1.62;80.50;101681.56;4195320;28;20028;-68
2023/02/20 01:06:09;;;;;;;;;;;;;;;1.62;80.29;101670.91;4201410;28;20015;-68
2023/02/20 01:08:11;;;;;;;;;;;;;;;1.59;80.64;101663.97;4194430;28;20024;-68
2023/02/20 01:10:13;;;;;;;;;;;;;;;1.59;80.42;101661.31;4185338;28;20023;-68
2023/02/20 01:12:15;;;;;;;;;;;;;;;1.59;80.60;101671.13;4203166;28;20505;-68
2023/02/20 01:14:19;;;;;;;;;;;;;;;1.60;80.54;101672.84;4193993;28;20007;-68
2023/02/20 01:16:21;;;;;;;;;;;;;;;1.58;81.02;101664.94;4202566;28;20015;-68
2023/02/20 01:18:23;;;;;;;;;;;;;;;1.57;81.05;101663.22;4194422;28;20026;-68
2023/02/20 01:20:27;;;;;;;;;;;;;;;1.56;80.80;101658.84;4194186;28;20035;-68
2023/02/20 01:22:29;;;;;;;;;;;;;;;1.57;81.04;101663.22;4202339;28;20019;-66
2023/02/20 01:24:32;;;;;;;;;;;;;;;1.57;81.10;101655.22;4194781;28;20032;-68
2023/02/20 01:26:35;;;;;;;;;;;;;;;1.55;81.24;101646.50;4194290;28;20023;-68
2023/02/20 01:28:37;;;;;;;;;;;;;;;1.57;81.31;101641.06;4195044;28;20026;-68
2023/02/20 01:30:40;;;;;;;;;;;;;;;1.57;81.41;101646.41;4201953;28;20007;-67
2023/02/20 01:32:45;;;;;;;;;;;;;;;1.60;81.49;101641.72;4195691;28;20027;-68
2023/02/20 01:34:50;;;;;;;;;;;;;;;1.64;81.54;101633.53;4194185;28;20007;-67
2023/02/20 01:36:53;;;;;;;;;;;;;;;1.65;81.39;101637.94;4194773;28;20020;-68
2023/02/20 01:38:54;;;;;;;;;;;;;;;1.66;81.63;101626.31;4195560;28;20055;-68
2023/02/20 01:40:56;;;;;;;;;;;;;;;1.68;81.47;101621.72;4201678;28;20053;-67
2023/02/20 01:42:59;;;;;;;;;;;;;;;1.72;81.29;101620.59;4202612;28;20027;-64
2023/02/20 01:45:28;;;;;;;;;;;;;;;1.71;81.39;101616.22;4193750;28;20019;-67
2023/02/20 01:47:32;;;;;;;;;;;;;;;1.68;81.44;101605.75;4202095;28;20028;-68
2023/02/20 01:49:35;;;;;;;;;;;;;;;1.69;81.81;101608.31;4194928;28;20030;-68
2023/02/20 01:51:39;;;;;;;;;;;;;;;1.72;81.77;101605.44;4194926;28;20014;-67
2023/02/20 01:53:40;;;;;;;;;;;;;;;1.75;81.64;101602.59;4195425;28;20027;-67
2023/02/20 01:55:45;;;;;;;;;;;;;;;1.76;81.75;101591.00;4194259;28;20020;-67
2023/02/20 01:57:48;;;;;;;;;;;;;;;1.79;81.71;101588.13;4193431;28;20019;-67
2023/02/20 01:59:50;;;;;;;;;;;;;;;1.82;81.61;101572.91;4183661;28;20475;-67
2023/02/20 02:01:52;;;;;;;;;;;;;;;1.84;81.73;101568.34;4193494;28;20366;-67
2023/02/20 02:03:57;;;;;;;;;;;;;;;1.84;81.74;101569.19;4194397;28;20027;-65
2023/02/20 02:06:00;;;;;;;;;;;;;;;1.82;81.48;101556.91;4193555;28;20683;-67
2023/02/20 02:08:03;;;;;;;;;;;;;;;1.83;81.88;101558.63;4193017;28;20027;-67
2023/02/20 02:10:06;;;;;;;;;;;;;;;1.85;82.14;101552.25;4190196;28;20015;-67
2023/02/20 02:12:08;;;;;;;;;;;;;;;1.89;82.18;101558.25;4194012;28;20032;-67
2023/02/20 02:14:11;;;;;;;;;;;;;;;1.91;82.03;101557.19;4192902;28;20420;-68
2023/02/20 02:16:16;;;;;;;;;;;;;;;1.95;82.03;101553.34;4200758;28;20019;-68
2023/02/20 02:18:41;;;;;;;;;;;;;;;1.95;81.83;101550.69;4194080;28;20019;-68
2023/02/20 02:20:58;;;;;;;;;;;;;;;1.95;82.07;101552.50;4193902;28;20024;-64
2023/02/20 02:23:19;;;;;;;;;;;;;;;1.95;81.79;101553.34;4194789;28;20019;-67
2023/02/20 02:25:25;;;;;;;;;;;;;;;1.97;82.10;101545.25;4183409;28;20007;-68
2023/02/20 02:27:46;;;;;;;;;;;;;;;2.03;82.36;101550.19;4194001;28;20019;-68
2023/02/20 02:30:08;;;;;;;;;;;;;;;2.06;82.24;101546.47;4194339;28;20008;-67
2023/02/20 02:32:26;;;;;;;;;;;;;;;2.07;82.01;101542.84;4184606;28;20012;-67
2023/02/20 02:34:46;;;;;;;;;;;;;;;2.09;82.09;101551.59;4208572;28;20027;-67
2023/02/20 02:36:51;;;;;;;;;;;;;;;2.07;81.97;101535.72;4208889;28;20375;-67
2023/02/20 02:38:55;;;;;;;;;;;;;;;2.09;82.14;101540.94;4192724;28;20031;-67
2023/02/20 02:41:01;;;;;;;;;;;;;;;2.12;82.37;101535.41;4191511;28;19978;-66
2023/02/20 02:43:06;;;;;;;;;;;;;;;2.15;82.24;101532.53;4183783;28;20019;-67
2023/02/20 02:45:10;;;;;;;;;;;;;;;2.17;82.21;101533.28;4200418;28;20031;-67
2023/02/20 02:47:12;;;;;;;;;;;;;;;2.17;82.04;101526.13;4193550;28;20032;-67
2023/02/20 02:49:17;;;;;;;;;;;;;;;2.13;81.94;101507.78;4201403;28;20035;-68
2023/02/20 02:51:19;;;;;;;;;;;;;;;2.15;82.13;101512.06;4183964;28;20564;-67
2023/02/20 02:53:22;;;;;;;;;;;;;;;2.16;82.09;101515.56;4184105;28;20338;-67
2023/02/20 02:55:26;;;;;;;;;;;;;;;2.15;82.00;101506.72;4190498;28;19999;-68
2023/02/20 02:57:28;;;;;;;;;;;;;;;2.18;82.50;101511.00;4184910;28;20012;-65
2023/02/20 02:59:31;;;;;;;;;;;;;;;2.22;82.54;101509.81;4192747;28;20480;-67
2023/02/20 03:01:33;;;;;;;;;;;;;;;2.24;82.54;101499.94;4193353;28;20506;-67
2023/02/20 03:03:35;;;;;;;;;;;;;;;2.26;82.52;101508.69;4192188;28;20583;-67
2023/02/20 03:05:45;;;;;;;;;;;;;;;2.26;82.68;101505.16;4184501;28;20399;-68
2023/02/20 03:07:47;;;;;;;;;;;;;;;2.27;82.72;101501.53;4193779;28;20380;-68
2023/02/20 03:09:51;;;;;;;;;;;;;;;2.29;82.69;101494.28;4192149;28;20664;-67
2023/02/20 03:11:53;;;;;;;;;;;;;;;2.31;82.97;101493.22;4193754;28;20396;-68
2023/02/20 03:16:21;;;;;;;;;;;;;;;2.38;83.24;101495.47;4184306;28;19924;-68
2023/02/20 03:18:24;;;;;;;;;;;;;;;2.41;83.10;101485.44;4193735;28;20023;-67
2023/02/20 03:20:26;;;;;;;;;;;;;;;2.45;83.18;101484.25;4186780;28;20015;-65
2023/02/20 03:22:29;;;;;;;;;;;;;;;2.48;83.30;101481.38;4187411;28;20036;-67
2023/02/20 03:24:31;;;;;;;;;;;;;;;2.53;83.19;101470.41;4196583;28;20047;-68
2023/02/20 03:26:35;;;;;;;;;;;;;;;2.59;83.50;101461.97;4194565;28;20019;-67
2023/02/20 03:28:40;;;;;;;;;;;;;;;2.64;83.80;101464.31;4203364;28;20020;-68
2023/02/20 03:30:44;;;;;;;;;;;;;;;2.70;83.43;101458.56;4211145;28;20007;-68
2023/02/20 03:44:40;;;;;;;;;;;;;;;3.02;83.65;101423.38;4186877;28;20043;-68
2023/02/20 03:46:42;;;;;;;;;;;;;;;3.04;83.57;101416.97;4187684;28;20027;-66
2023/02/20 03:48:47;;;;;;;;;;;;;;;3.06;83.26;101433.72;4196308;28;19967;-66
2023/02/20 03:53:18;;;;;;;;;;;;;;;3.10;83.40;101428.16;4187166;28;20023;-66
2023/02/20 03:55:20;;;;;;;;;;;;;;;3.13;83.33;101430.59;4186294;28;20019;-65
2023/02/20 03:57:25;;;;;;;;;;;;;;;3.15;83.30;101429.53;4186726;28;20547;-66
2023/02/20 03:59:30;;;;;;;;;;;;;;;3.17;83.31;101446.28;4202406;28;20473;-66
2023/02/20 04:01:33;;;;;;;;;;;;;;;3.18;83.51;101434.66;4193468;28;20485;-67
2023/02/20 04:03:37;;;;;;;;;;;;;;;3.21;83.82;101431.78;4202430;28;20019;-66
2023/02/20 04:05:40;;;;;;;;;;;;;;;3.25;83.77;101438.56;4202149;28;20022;-65
2023/02/20 04:07:45;;;;;;;;;;;;;;;3.32;83.88;101449.63;4210569;28;20014;-66
2023/02/20 04:09:47;;;;;;;;;;;;;;;3.35;83.93;101436.06;4194403;28;20011;-65
2023/02/20 04:11:50;;;;;;;;;;;;;;;3.40;84.01;101439.28;4195120;28;20019;-66
2023/02/20 04:13:54;;;;;;;;;;;;;;;3.44;84.00;101445.22;4193531;28;20060;-66
2023/02/20 04:15:59;;;;;;;;;;;;;;;3.46;84.07;101440.63;4185631;28;20015;-66
2023/02/20 04:18:02;;;;;;;;;;;;;;;3.49;84.21;101429.72;4183062;28;19958;-65
2023/02/20 04:20:05;;;;;;;;;;;;;;;3.53;83.95;101425.00;4189399;28;19999;-66
2023/02/20 04:22:10;;;;;;;;;;;;;;;3.54;84.13;101414.22;4202872;28;20102;-65
2023/02/20 04:24:13;;;;;;;;;;;;;;;3.57;84.17;101419.34;4193055;28;20425;-65
2023/02/20 04:26:16;;;;;;;;;;;;;;;3.60;84.43;101427.13;4201739;28;21635;-66
2023/02/20 04:28:20;;;;;;;;;;;;;;;3.64;84.42;101413.50;4202548;28;20473;-65
2023/02/20 04:30:31;;;;;;;;;;;;;;;3.67;84.50;101407.91;4185497;28;20481;-65
2023/02/20 04:32:33;;;;;;;;;;;;;;;3.68;84.47;101406.97;4193840;28;20383;-65
2023/02/20 04:34:36;;;;;;;;;;;;;;;3.71;84.75;101412.06;4202602;28;20350;-65
2023/02/20 04:36:40;;;;;;;;;;;;;;;3.73;84.69;101399.44;4186513;28;20031;-65
2023/02/20 04:38:43;;;;;;;;;;;;;;;3.75;84.57;101401.03;4202496;28;20035;-66
2023/02/20 04:40:49;;;;;;;;;;;;;;;3.79;84.63;101386.50;4191478;28;20015;-65
2023/02/20 04:42:51;;;;;;;;;;;;;;;3.81;84.82;101386.38;4201798;28;20362;-66
2023/02/20 04:44:53;;;;;;;;;;;;;;;3.83;84.65;101389.78;4208488;28;19999;-66
2023/02/20 04:46:57;;;;;;;;;;;;;;;3.85;84.74;101374.47;4200642;28;20424;-65
2023/02/20 04:49:00;;;;;;;;;;;;;;;3.88;84.79;101374.22;4185445;28;20047;-65
2023/02/20 04:51:03;;;;;;;;;;;;;;;3.89;84.61;101383.97;4201128;28;20082;-67
2023/02/20 04:53:08;;;;;;;;;;;;;;;3.90;84.75;101366.97;4194147;28;20342;-67
2023/02/20 04:55:10;;;;;;;;;;;;;;;3.93;84.81;101371.22;4202465;28;20023;-67
2023/02/20 04:57:12;;;;;;;;;;;;;;;3.94;84.78;101368.41;4195400;28;20365;-67
2023/02/20 04:59:14;;;;;;;;;;;;;;;3.99;84.87;101373.41;4201853;28;20027;-68
2023/02/20 05:01:16;;;;;;;;;;;;;;;3.99;85.01;101370.72;4185891;28;20024;-68
2023/02/20 05:03:20;;;;;;;;;;;;;;;4.00;85.18;101364.44;4194614;28;20031;-67
2023/02/20 05:05:22;;;;;;;;;;;;;;;4.02;85.05;101354.47;4195002;28;20023;-65
2023/02/20 05:07:24;;;;;;;;;;;;;;;4.04;84.98;101338.31;4191312;28;20525;-67
2023/02/20 05:09:27;;;;;;;;;;;;;;;4.04;85.29;101351.66;4191899;28;20007;-67
2023/02/20 05:11:28;;;;;;;;;;;;;;;4.05;85.29;101334.66;4192304;28;20031;-67
2023/02/20 05:13:31;;;;;;;;;;;;;;;4.06;85.42;101331.00;4192861;28;20003;-67
2023/02/20 05:15:33;;;;;;;;;;;;;;;4.06;85.18;101323.84;4194217;28;20388;-67
2023/02/20 05:17:35;;;;;;;;;;;;;;;4.09;85.33;101317.41;4194256;28;20019;-67
2023/02/20 05:19:39;;;;;;;;;;;;;;;4.10;85.15;101309.25;4194168;28;20023;-67
2023/02/20 05:24:12;;;;;;;;;;;;;;;4.17;85.06;101298.09;4159191;28;20012;-67
2023/02/20 05:26:17;;;;;;;;;;;;;;;4.17;84.98;101304.31;4174534;28;20019;-67
2023/02/20 05:28:19;;;;;;;;;;;;;;;4.13;85.51;101303.66;4193806;28;20027;-67
2023/02/20 05:30:21;;;;;;;;;;;;;;;4.24;85.26;101299.31;4190120;28;20027;-67
2023/02/20 05:32:23;;;;;;;;;;;;;;;4.25;85.07;101306.38;4193373;28;20015;-67
2023/02/20 05:34:25;;;;;;;;;;;;;;;4.25;85.46;101311.72;4184908;28;20028;-67
2023/02/20 05:36:29;;;;;;;;;;;;;;;4.26;85.57;101305.38;4194033;28;20011;-67
2023/02/20 05:38:31;;;;;;;;;;;;;;;4.28;85.61;101303.44;4194644;28;20007;-67
2023/02/20 05:40:33;;;;;;;;;;;;;;;4.30;85.44;101301.50;4193569;28;20441;-67
2023/02/20 05:42:35;;;;;;;;;;;;;;;4.30;85.83;101302.34;4193014;28;20454;-67
2023/02/20 05:44:37;;;;;;;;;;;;;;;4.30;85.97;101297.00;4193886;28;20024;-67
2023/02/20 05:46:39;;;;;;;;;;;;;;;4.31;86.00;101289.81;4194175;28;20011;-67
2023/02/20 05:48:41;;;;;;;;;;;;;;;4.35;86.17;101296.63;4194699;28;20012;-67
2023/02/20 05:50:43;;;;;;;;;;;;;;;4.35;85.87;101290.44;4194342;28;20062;-67
2023/02/20 05:52:53;;;;;;;;;;;;;;;4.37;86.03;101296.50;4193182;28;20018;-67
2023/02/20 05:54:55;;;;;;;;;;;;;;;4.37;86.16;101291.16;4192802;28;20032;-67
2023/02/20 05:56:57;;;;;;;;;;;;;;;4.36;86.43;101284.09;4192127;28;20426;-67
2023/02/20 05:59:00;;;;;;;;;;;;;;;4.35;86.57;101280.56;4193899;28;20003;-67
2023/02/20 06:01:02;;;;;;;;;;;;;;;4.37;86.44;101272.44;4191714;28;20032;-67
2023/02/20 06:03:07;;;;;;;;;;;;;;;4.37;86.80;101278.63;4195186;28;20023;-67
2023/02/20 06:05:11;;;;;;;;;;;;;;;4.38;87.02;101284.84;4194045;28;20019;-67
2023/02/20 06:07:12;;;;;;;;;;;;;;;4.36;86.79;101268.91;4191896;28;20099;-66
2023/02/20 06:09:16;;;;;;;;;;;;;;;4.37;87.28;101265.25;4192308;28;20027;-66
2023/02/20 06:11:18;;;;;;;;;;;;;;;4.39;87.04;101249.06;4201481;28;20010;-66
2023/02/20 06:13:20;;;;;;;;;;;;;;;4.39;87.31;101252.63;4194616;28;20033;-66
2023/02/20 06:15:22;;;;;;;;;;;;;;;4.38;87.49;101248.25;4192946;28;20023;-67
2023/02/20 06:17:24;;;;;;;;;;;;;;;4.39;87.59;101241.06;4194511;28;20015;-67
2023/02/20 06:19:26;;;;;;;;;;;;;;;4.39;87.61;101225.00;4193962;28;20477;-66
2023/02/20 06:21:28;;;;;;;;;;;;;;;4.38;87.53;101226.84;4194202;28;20054;-67
2023/02/20 06:23:30;;;;;;;;;;;;;;;4.40;87.81;101221.38;4194178;28;20023;-66
2023/02/20 06:25:33;;;;;;;;;;;;;;;4.41;87.61;101226.59;4192349;28;20023;-66
2023/02/20 06:27:38;;;;;;;;;;;;;;;4.41;87.70;101218.56;4193923;28;20233;-67
2023/02/20 06:29:40;;;;;;;;;;;;;;;4.42;87.44;101225.63;4192733;28;20447;-66
2023/02/20 06:31:42;;;;;;;;;;;;;;;4.44;87.25;101222.84;4191646;28;20023;-67
2023/02/20 06:33:44;;;;;;;;;;;;;;;4.45;87.42;101220.03;4193683;28;20007;-68
2023/02/20 06:35:47;;;;;;;;;;;;;;;4.47;87.32;101233.28;4192425;28;20121;-67
2023/02/20 06:37:49;;;;;;;;;;;;;;;4.48;87.10;101226.94;4193278;28;20489;-67
2023/02/20 06:39:51;;;;;;;;;;;;;;;4.50;87.31;101241.06;4192654;28;20027;-66
2023/02/20 06:41:54;;;;;;;;;;;;;;;4.50;87.18;101233.03;4192966;28;20465;-66
2023/02/20 06:43:56;;;;;;;;;;;;;;;4.53;87.08;101218.53;4192596;28;20027;-67
2023/02/20 06:45:58;;;;;;;;;;;;;;;4.55;86.99;101222.78;4193898;28;20824;-67
2023/02/20 06:48:00;;;;;;;;;;;;;;;4.56;87.06;101215.59;4170458;28;20020;-66
2023/02/20 06:50:03;;;;;;;;;;;;;;;4.54;87.31;101226.44;4169255;28;20008;-66
2023/02/20 06:52:05;;;;;;;;;;;;;;;4.56;87.44;101219.16;4170194;28;20031;-67
2023/02/20 06:54:07;;;;;;;;;;;;;;;4.57;87.15;101218.16;4171548;28;20446;-67
2023/02/20 06:56:10;;;;;;;;;;;;;;;4.59;87.27;101237.63;4172309;28;20658;-66
2023/02/20 06:58:14;;;;;;;;;;;;;;;4.60;86.99;101222.41;4173570;28;20355;-66
2023/02/20 07:00:16;;;;;;;;;;;;;;;4.63;87.24;101198.09;4173042;28;20340;-67
2023/02/20 07:02:18;;;;;;;;;;;;;;;4.65;86.91;101204.16;4171705;28;20482;-67
2023/02/20 07:04:21;;;;;;;;;;;;;;;4.64;86.91;101205.13;4170643;28;20023;-66
2023/02/20 07:06:23;;;;;;;;;;;;;;;4.64;86.93;101214.00;4172527;28;20019;-71
2023/02/20 07:08:25;;;;;;;;;;;;;;;4.66;87.21;101214.72;4172771;28;20486;-66
2023/02/20 07:10:27;;;;;;;;;;;;;;;4.68;86.91;101210.09;4172121;28;20438;-66
2023/02/20 07:12:30;;;;;;;;;;;;;;;4.69;87.00;101210.97;4171951;28;20036;-66
2023/02/20 07:14:34;;;;;;;;;;;;;;;4.74;86.78;101197.19;4172852;28;20537;-66
2023/02/20 07:16:36;;;;;;;;;;;;;;;4.76;86.43;101200.59;4172528;28;20032;-67
2023/02/20 07:18:37;;;;;;;;;;;;;;;4.79;86.08;101208.34;4172825;28;20467;-67
2023/02/20 07:20:39;;;;;;;;;;;;;;;4.80;85.99;101170.75;4171445;28;20020;-67
2023/02/20 07:22:48;;;;;;;;;;;;;;;4.81;85.84;101171.59;4172859;28;20019;-66
2023/02/20 07:24:51;;;;;;;;;;;;;;;4.82;85.43;101182.19;4172025;28;20023;-67
2023/02/20 07:26:53;;;;;;;;;;;;;;;4.83;85.15;101185.72;4171190;28;20400;-66
2023/02/20 07:28:57;;;;;;;;;;;;;;;4.82;85.31;101171.47;4169334;28;20016;-66
2023/02/20 07:31:01;;;;;;;;;;;;;;;4.83;85.41;101181.22;4169832;28;20035;-67
2023/02/20 07:33:03;;;;;;;;;;;;;;;4.85;85.01;101171.22;4170155;28;20082;-66
2023/02/20 07:35:05;;;;;;;;;;;;;;;4.87;84.71;101176.44;4170542;28;20017;-66
2023/02/20 07:37:08;;;;;;;;;;;;;;;4.87;84.55;101181.78;4152816;28;20462;-66
2023/02/20 07:39:10;;;;;;;;;;;;;;;4.89;84.28;101203.94;4171927;28;20032;-67
2023/02/20 07:41:12;;;;;;;;;;;;;;;4.91;84.48;101182.41;4171620;28;20023;-66
2023/02/20 07:43:15;;;;;;;;;;;;;;;4.92;84.12;101179.59;4171873;28;20025;-66
2023/02/20 07:45:17;;;;;;;;;;;;;;;4.94;84.12;101188.34;4171960;28;20056;-67
2023/02/20 07:47:21;;;;;;;;;;;;;;;4.98;83.71;101173.69;4186942;28;20031;-67
2023/02/20 07:49:22;;;;;;;;;;;;;;;4.99;83.62;101159.34;4195927;28;20357;-66
2023/02/20 07:51:24;;;;;;;;;;;;;;;5.00;83.34;101155.69;4195862;28;20015;-67
2023/02/20 07:53:27;;;;;;;;;;;;;;;5.03;83.24;101152.75;4196973;28;19932;-67
2023/02/20 07:55:30;;;;;;;;;;;;;;;5.07;82.97;101157.84;4195764;28;20011;-67
2023/02/20 07:57:32;;;;;;;;;;;;;;;5.06;82.98;101148.97;4195726;28;20016;-67
2023/02/20 07:59:34;;;;;;;;;;;;;;;5.10;82.49;101154.91;4180872;28;20044;-67
2023/02/20 08:01:36;;;;;;;;;;;;;;;5.12;82.25;101148.44;4172885;28;20023;-67
2023/02/20 08:03:39;;;;;;;;;;;;;;;5.13;82.21;101146.63;4186368;28;20015;-67
2023/02/20 08:05:41;;;;;;;;;;;;;;;5.15;82.05;101136.63;4201950;28;20015;-67
2023/02/20 08:07:46;;;;;;;;;;;;;;;5.18;81.76;101134.53;4195152;28;20011;-67
2023/02/20 08:09:48;;;;;;;;;;;;;;;5.21;81.37;101136.94;4196502;28;20446;-67
2023/02/20 08:11:50;;;;;;;;;;;;;;;5.23;81.40;101131.44;4195903;28;20438;-67
2023/02/20 08:13:54;;;;;;;;;;;;;;;5.25;81.05;101140.22;4193777;28;20435;-67
2023/02/20 08:15:56;;;;;;;;;;;;;;;5.27;81.09;101116.81;4195744;28;20422;-66
2023/02/20 08:17:58;;;;;;;;;;;;;;;5.31;80.78;101106.69;4194882;28;20039;-67
2023/02/20 08:20:01;;;;;;;;;;;;;;;5.34;80.64;101103.72;4203485;28;20023;-67
2023/02/20 08:22:03;;;;;;;;;;;;;;;5.35;80.55;101100.09;4195200;28;20011;-65
2023/02/20 08:24:05;;;;;;;;;;;;;;;5.38;80.18;101084.59;4195238;28;20007;-67
2023/02/20 08:26:07;;;;;;;;;;;;;;;5.39;80.28;101086.28;4194127;28;20016;-67
2023/02/20 08:28:09;;;;;;;;;;;;;;;5.41;80.21;101083.47;4194892;28;20031;-67
2023/02/20 08:30:12;;;;;;;;;;;;;;;5.45;80.08;101081.38;4193330;28;20011;-68
2023/02/20 08:32:14;;;;;;;;;;;;;;;5.47;79.96;101072.22;4193212;28;20032;-67
2023/02/20 08:34:16;;;;;;;;;;;;;;;5.50;79.78;101089.84;4191978;28;20498;-67
2023/02/20 08:36:19;;;;;;;;;;;;;;;5.53;79.33;101079.72;4194985;28;20011;-67
2023/02/20 08:38:22;;;;;;;;;;;;;;;5.55;79.38;101072.38;4196432;28;20031;-67
2023/02/20 08:40:24;;;;;;;;;;;;;;;5.58;78.94;101076.63;4195802;28;20403;-67
2023/02/20 08:42:26;;;;;;;;;;;;;;;5.59;78.73;101070.28;4196002;28;20027;-67
2023/02/20 08:44:28;;;;;;;;;;;;;;;5.61;78.81;101062.94;4194876;28;20547;-67
2023/02/20 08:46:32;;;;;;;;;;;;;;;5.64;78.68;101065.34;4196039;28;20036;-67
2023/02/20 08:48:35;;;;;;;;;;;;;;;5.65;78.62;101042.94;4195848;28;20029;-67
2023/02/20 08:50:37;;;;;;;;;;;;;;;5.72;78.50;101061.97;4194069;28;20015;-66
2023/02/20 08:52:43;;;;;;;;;;;;;;;5.70;78.55;101062.13;4194264;28;20058;-67
2023/02/20 08:54:45;;;;;;;;;;;;;;;5.77;78.00;101039.16;4193360;28;20351;-67
2023/02/20 08:56:47;;;;;;;;;;;;;;;5.79;77.79;101039.00;4195410;28;20430;-67
2023/02/20 08:58:50;;;;;;;;;;;;;;;5.83;77.92;101035.09;4194357;28;20040;-68
2023/02/20 09:00:52;;;;;;;;;;;;;;;5.84;77.69;101023.34;4195394;28;20369;-67
2023/02/20 09:02:54;;;;;;;;;;;;;;;5.88;77.57;101031.97;4193495;28;20059;-67
2023/02/20 09:04:56;;;;;;;;;;;;;;;5.92;77.54;101014.63;4194734;28;20481;-67
2023/02/20 09:06:58;;;;;;;;;;;;;;;5.92;77.30;101009.25;4195128;28;20023;-68
2023/02/20 09:09:01;;;;;;;;;;;;;;;5.95;77.32;101004.44;4195031;28;20075;-68
2023/02/20 09:11:04;;;;;;;;;;;;;;;6.00;77.31;101013.94;4194920;28;20022;-68
2023/02/20 09:13:06;;;;;;;;;;;;;;;6.04;77.35;100994.75;4196187;28;20359;-68
2023/02/20 09:15:08;;;;;;;;;;;;;;;6.06;77.19;100984.72;4194921;28;20016;-67
2023/02/20 09:17:10;;;;;;;;;;;;;;;6.10;76.84;100988.00;4194490;28;20064;-67
2023/02/20 09:19:14;;;;;;;;;;;;;;;6.13;76.70;100969.78;4196294;28;20028;-66
2023/02/20 09:21:16;;;;;;;;;;;;;;;6.21;76.58;100968.22;4194716;28;20590;-67
2023/02/20 09:23:23;;;;;;;;;;;;;;;6.27;75.97;100963.13;4195104;28;20027;-67
2023/02/20 09:25:26;;;;;;;;;;;;;;;6.30;75.86;100970.03;4194517;28;20027;-67
2023/02/20 09:27:28;;;;;;;;;;;;;;;6.34;75.47;100973.28;4194693;28;20032;-67
2023/02/20 09:29:30;;;;;;;;;;;;;;;6.37;75.53;100948.84;4193959;28;20031;-67
2023/02/20 09:31:32;;;;;;;;;;;;;;;6.40;75.47;100932.47;4194797;28;20054;-67
2023/02/20 09:33:34;;;;;;;;;;;;;;;6.42;75.06;100946.56;4194656;28;20035;-67
2023/02/20 09:35:36;;;;;;;;;;;;;;;6.44;75.35;100964.22;4194374;28;20008;-67
2023/02/20 09:37:38;;;;;;;;;;;;;;;6.48;74.91;100938.78;4194431;28;20363;-67
2023/02/20 09:39:40;;;;;;;;;;;;;;;6.51;74.89;100916.19;4195644;28;20011;-67
2023/02/20 09:41:46;;;;;;;;;;;;;;;6.53;75.12;100916.88;4195837;28;20320;-68
2023/02/20 09:43:49;;;;;;;;;;;;;;;6.56;74.83;100899.66;4194383;28;20122;-66
2023/02/20 09:45:55;;;;;;;;;;;;;;;6.57;74.89;100929.03;4194831;28;20019;-66
2023/02/20 09:48:01;;;;;;;;;;;;;;;6.63;74.29;100938.31;4195241;28;20003;-66
2023/02/20 09:50:05;;;;;;;;;;;;;;;6.68;74.05;100914.59;4194293;28;20438;-66
2023/02/20 09:52:09;;;;;;;;;;;;;;;6.72;74.09;100899.00;4194929;28;20000;-66
2023/02/20 09:54:12;;;;;;;;;;;;;;;6.75;73.89;100898.72;4193219;28;20022;-66
2023/02/20 09:56:16;;;;;;;;;;;;;;;6.80;73.47;100894.59;4193375;28;20327;-66
2023/02/20 09:58:21;;;;;;;;;;;;;;;6.83;73.03;100898.81;4194582;28;20020;-66
2023/02/20 10:00:25;;;;;;;;;;;;;;;6.85;72.87;100880.75;4194134;28;20367;-66
2023/02/20 10:02:28;;;;;;;;;;;;;;;6.87;72.99;100892.16;4193975;28;20019;-66
2023/02/20 10:04:31;;;;;;;;;;;;;;;6.91;73.21;100890.03;4193752;28;20034;-66
2023/02/20 10:06:34;;;;;;;;;;;;;;;6.92;73.08;100911.34;4194986;28;20027;-66
2023/02/20 10:08:36;;;;;;;;;;;;;;;6.96;72.92;100895.78;4194622;28;20470;-66
2023/02/20 10:10:38;;;;;;;;;;;;;;;7.01;72.73;100894.34;4193397;28;20023;-66
2023/02/20 10:12:41;;;;;;;;;;;;;;;7.07;72.60;100914.41;4193791;28;20027;-66
2023/02/20 10:14:58;;;;;;;;;;;;;;;7.12;72.56;100901.34;4195000;28;20046;-66
2023/02/20 10:17:03;;;;;;;;;;;;;;;7.18;72.44;100902.59;4190500;28;20011;-66
2023/02/20 10:19:09;;;;;;;;;;;;;;;7.24;72.27;100888.56;4195535;28;19960;-66
2023/02/20 10:21:12;;;;;;;;;;;;;;;7.30;71.92;100893.31;4194540;28;20051;-65
2023/02/20 10:23:16;;;;;;;;;;;;;;;7.35;71.67;100885.66;4195589;28;19988;-65
2023/02/20 10:25:20;;;;;;;;;;;;;;;7.38;71.42;100881.81;4201651;28;20007;-66
2023/02/20 10:27:25;;;;;;;;;;;;;;;7.40;71.26;100875.28;4193941;28;20392;-67
2023/02/20 10:29:28;;;;;;;;;;;;;;;7.43;70.65;100905.53;4196749;28;20431;-66
2023/02/20 10:31:33;;;;;;;;;;;;;;;7.43;70.54;100875.97;4196809;28;20019;-66
2023/02/20 10:33:40;;;;;;;;;;;;;;;7.34;70.19;100872.38;4198781;28;20023;-66
2023/02/20 10:35:44;;;;;;;;;;;;;;;7.32;70.63;100904.78;4198651;28;20011;-67
2023/02/20 10:37:46;;;;;;;;;;;;;;;7.32;71.08;100890.47;4197610;28;20012;-67
2023/02/20 10:39:50;;;;;;;;;;;;;;;7.31;71.08;100872.69;4195387;28;20110;-67
2023/02/20 10:41:54;;;;;;;;;;;;;;;7.30;71.03;100887.94;4198359;28;20107;-66
2023/02/20 10:43:59;;;;;;;;;;;;;;;7.32;70.83;100860.91;4198479;28;20031;-67
2023/02/20 10:46:02;;;;;;;;;;;;;;;7.33;70.65;100862.63;4196678;28;20172;-67
2023/02/20 10:48:05;;;;;;;;;;;;;;;7.29;70.90;100863.91;4155532;28;20020;-67
2023/02/20 10:50:09;;;;;;;;;;;;;;;7.30;71.14;100818.06;4157311;28;20017;-66
2023/02/20 10:52:13;;;;;;;;;;;;;;;7.34;71.01;100853.56;4158657;28;20024;-66
2023/02/20 10:54:17;;;;;;;;;;;;;;;7.35;70.86;100845.34;4155234;28;20435;-67
2023/02/20 10:56:20;;;;;;;;;;;;;;;7.35;70.89;100853.41;4157385;28;20012;-65
2023/02/20 10:58:23;;;;;;;;;;;;;;;7.37;70.88;100840.66;4157982;28;20027;-67
2023/02/20 11:00:27;;;;;;;;;;;;;;;7.42;71.02;100834.00;4157077;28;20012;-67
2023/02/20 11:02:30;;;;;;;;;;;;;;;7.40;70.91;100829.59;4157910;28;20012;-67